createdAt,value
2018-07-26T00:01:58.832Z,61.87
2018-07-26T00:04:33.460Z,61.69
2018-07-26T00:07:08.448Z,61.20
2018-07-26T00:09:43.137Z,60.88
2018-07-26T00:12:17.852Z,61.21
2018-07-26T00:14:52.464Z,61.31
2018-07-26T00:17:27.340Z,60.99
2018-07-26T00:20:01.994Z,60.45
2018-07-26T00:22:36.852Z,61.06
2018-07-26T00:25:11.343Z,60.74
2018-07-26T00:27:45.924Z,60.52
2018-07-26T00:30:20.637Z,60.84
2018-07-26T00:32:55.544Z,60.94
2018-07-26T00:35:30.068Z,61.40
2018-07-26T00:38:04.768Z,63.17
2018-07-26T00:40:39.248Z,63.36
2018-07-26T00:43:13.777Z,63.47
2018-07-26T00:45:48.288Z,63.94
2018-07-26T00:48:23.204Z,63.75
2018-07-26T00:50:57.666Z,63.58
2018-07-26T00:53:32.195Z,64.26
2018-07-26T00:56:06.993Z,64.74
2018-07-26T00:58:41.652Z,64.42
2018-07-26T01:01:16.335Z,64.53
2018-07-26T01:03:50.780Z,64.04
2018-07-26T01:06:25.252Z,64.57
2018-07-26T01:08:59.624Z,65.57
2018-07-26T01:11:34.024Z,63.84
2018-07-26T01:14:19.098Z,62.94
2018-07-26T01:16:53.569Z,62.60
2018-07-26T01:19:28.272Z,61.63
2018-07-26T01:22:02.744Z,61.13
2018-07-26T01:24:37.448Z,63.03
2018-07-26T01:27:12.071Z,61.36
2018-07-26T01:29:59.937Z,63.16
2018-07-26T01:32:34.365Z,62.39
2018-07-26T01:35:27.848Z,61.86
2018-07-26T01:38:05.738Z,63.08
2018-07-26T01:40:39.967Z,62.82
2018-07-26T01:43:24.559Z,64.18
2018-07-26T01:45:58.969Z,64.19
2018-07-26T01:48:46.461Z,64.74
2018-07-26T01:54:19.877Z,64.78
2018-07-26T01:56:54.255Z,66.34
2018-07-26T01:59:28.695Z,66.71
2018-07-26T02:02:03.115Z,65.85
2018-07-26T02:04:37.495Z,67.28
2018-07-26T02:07:11.876Z,66.86
2018-07-26T02:09:46.251Z,66.71
2018-07-26T02:12:21.255Z,67.00
2018-07-26T02:14:55.672Z,65.83
2018-07-26T02:17:29.948Z,65.31
2018-07-26T02:20:04.548Z,65.56
2018-07-26T02:22:38.955Z,65.04
2018-07-26T02:25:18.567Z,63.44
2018-07-26T02:27:58.519Z,63.53
2018-07-26T02:30:32.912Z,63.02
2018-07-26T02:33:07.483Z,64.00
2018-07-26T02:35:41.847Z,63.20
2018-07-26T02:38:16.172Z,63.31
2018-07-26T02:40:50.800Z,62.56
2018-07-26T02:43:25.103Z,61.94
2018-07-26T02:46:04.888Z,63.25
2018-07-26T02:48:39.502Z,62.02
2018-07-26T02:51:13.887Z,61.28
2018-07-26T02:53:48.314Z,61.27
2018-07-26T02:56:22.792Z,60.76
2018-07-26T02:58:57.071Z,60.01
2018-07-26T03:01:31.407Z,59.81
2018-07-26T03:04:06.052Z,58.97
2018-07-26T03:06:40.424Z,59.13
2018-07-26T03:09:14.724Z,58.87
2018-07-26T03:11:49.141Z,59.09
2018-07-26T03:14:23.599Z,58.94
2018-07-26T03:16:58.040Z,59.31
2018-07-26T03:19:32.465Z,60.02
2018-07-26T03:22:07.184Z,60.52
2018-07-26T03:24:41.753Z,61.38
2018-07-26T03:27:16.229Z,62.32
2018-07-26T03:29:50.653Z,62.39
2018-07-26T03:32:25.293Z,62.56
2018-07-26T03:34:59.896Z,62.73
2018-07-26T03:37:34.589Z,63.29
2018-07-26T03:40:09.189Z,63.25
2018-07-26T03:42:43.825Z,64.02
2018-07-26T03:45:18.332Z,65.00
2018-07-26T03:47:52.957Z,66.00
2018-07-26T03:50:27.310Z,66.38
2018-07-26T03:53:01.997Z,66.54
2018-07-26T03:55:36.484Z,67.30
2018-07-26T03:58:21.451Z,67.45
2018-07-26T04:00:56.112Z,67.34
2018-07-26T04:03:30.734Z,68.31
2018-07-26T04:06:05.312Z,67.13
2018-07-26T04:08:39.956Z,66.88
2018-07-26T04:11:14.547Z,65.19
2018-07-26T04:13:49.193Z,64.25
2018-07-26T04:16:23.928Z,62.51
2018-07-26T04:18:58.500Z,62.56
2018-07-26T04:21:32.940Z,61.46
2018-07-26T04:24:07.565Z,60.88
2018-07-26T04:26:42.165Z,60.54
2018-07-26T04:29:16.840Z,59.27
2018-07-26T04:31:51.325Z,59.01
2018-07-26T04:34:25.948Z,58.60
2018-07-26T04:37:00.659Z,59.07
2018-07-26T04:39:35.292Z,58.57
2018-07-26T04:42:09.821Z,58.95
2018-07-26T04:44:44.213Z,57.20
2018-07-26T04:47:18.721Z,58.55
2018-07-26T04:49:53.441Z,59.24
2018-07-26T04:52:28.043Z,58.22
2018-07-26T04:55:03.071Z,58.43
2018-07-26T04:57:37.690Z,58.22
2018-07-26T05:00:12.375Z,57.16
2018-07-26T05:02:47.128Z,57.90
2018-07-26T05:05:21.654Z,56.21
2018-07-26T05:07:56.275Z,55.53
2018-07-26T05:10:30.749Z,53.63
2018-07-26T05:13:06.357Z,53.80
2018-07-26T05:15:41.097Z,51.91
2018-07-26T05:18:15.855Z,51.36
2018-07-26T05:20:50.295Z,51.10
2018-07-26T05:23:24.956Z,50.71
2018-07-26T05:25:59.420Z,50.11
2018-07-26T05:28:33.860Z,50.22
2018-07-26T05:31:08.437Z,48.95
2018-07-26T05:33:42.916Z,48.66
2018-07-26T05:36:17.503Z,49.21
2018-07-26T05:38:58.497Z,48.45
2018-07-26T05:41:51.668Z,47.90
2018-07-26T05:44:26.128Z,47.45
2018-07-26T05:47:00.522Z,46.96
2018-07-26T05:49:35.100Z,46.11
2018-07-26T05:52:09.589Z,46.17
2018-07-26T05:54:44.045Z,45.10
2018-07-26T05:57:18.580Z,44.68
2018-07-26T05:59:53.057Z,44.58
2018-07-26T06:02:27.545Z,44.90
2018-07-26T06:05:02.001Z,43.93
2018-07-26T06:07:36.911Z,44.10
2018-07-26T06:10:11.540Z,43.58
2018-07-26T06:12:46.096Z,43.05
2018-07-26T06:15:20.700Z,43.58
2018-07-26T06:17:55.187Z,43.32
2018-07-26T06:20:29.669Z,42.75
2018-07-26T06:23:04.205Z,42.93
2018-07-26T06:25:38.735Z,41.99
2018-07-26T06:28:13.358Z,41.93
2018-07-26T06:30:47.777Z,38.92
2018-07-26T06:33:22.413Z,36.14
2018-07-26T06:35:56.989Z,31.94
2018-07-26T06:38:31.507Z,28.85
2018-07-26T06:41:06.093Z,27.42
2018-07-26T06:43:40.677Z,25.44
2018-07-26T06:46:15.220Z,23.69
2018-07-26T06:48:49.588Z,23.16
2018-07-26T06:51:24.063Z,23.48
2018-07-26T06:53:58.724Z,21.73
2018-07-26T06:56:33.461Z,21.42
2018-07-26T06:59:07.960Z,20.82
2018-07-26T07:01:42.336Z,23.24
2018-07-26T07:04:16.726Z,22.69
2018-07-26T07:06:51.126Z,21.98
2018-07-26T07:09:25.720Z,21.69
2018-07-26T07:12:00.182Z,21.86
2018-07-26T07:14:34.685Z,22.27
2018-07-26T07:17:09.107Z,22.88
2018-07-26T07:19:43.744Z,21.71
2018-07-26T07:22:18.478Z,20.84
2018-07-26T07:24:53.136Z,21.27
2018-07-26T07:27:27.687Z,19.49
2018-07-26T07:30:02.107Z,20.75
2018-07-26T07:32:36.600Z,20.13
2018-07-26T07:35:11.346Z,21.16
2018-07-26T07:37:46.069Z,19.19
2018-07-26T07:40:20.689Z,18.45
2018-07-26T07:42:55.409Z,18.48
2018-07-26T07:45:30.005Z,18.67
2018-07-26T07:48:04.590Z,17.67
2018-07-26T07:50:39.228Z,18.54
2018-07-26T07:53:13.869Z,17.67
2018-07-26T07:55:48.620Z,17.45
2018-07-26T07:58:23.223Z,17.69
2018-07-26T08:00:57.990Z,16.91
2018-07-26T08:03:32.604Z,17.96
2018-07-26T08:06:07.000Z,17.84
2018-07-26T08:08:41.717Z,17.60
2018-07-26T08:11:16.424Z,16.86
2018-07-26T08:13:50.776Z,17.01
2018-07-26T08:16:25.448Z,17.12
2018-07-26T08:18:59.924Z,17.08
2018-07-26T08:21:34.456Z,16.02
2018-07-26T08:24:08.832Z,16.60
2018-07-26T08:26:43.233Z,16.35
2018-07-26T08:29:17.597Z,15.12
2018-07-26T08:31:51.993Z,15.70
2018-07-26T08:34:26.388Z,17.03
2018-07-26T08:37:00.854Z,17.36
2018-07-26T08:39:36.863Z,15.56
2018-07-26T08:42:11.137Z,16.11
2018-07-26T08:44:45.588Z,14.60
2018-07-26T08:47:20.081Z,14.99
2018-07-26T08:52:58.954Z,14.10
2018-07-26T08:55:45.780Z,14.01
2018-07-26T09:01:20.845Z,14.36
2018-07-26T09:03:56.576Z,14.01
2018-07-26T09:06:33.116Z,13.63
2018-07-26T09:09:09.992Z,14.27
2018-07-26T09:11:54.021Z,15.77
2018-07-26T09:14:28.447Z,16.01
2018-07-26T09:17:02.800Z,14.38
2018-07-26T09:19:37.415Z,14.08
2018-07-26T09:22:12.528Z,14.15
2018-07-26T09:24:46.925Z,16.33
2018-07-26T09:27:21.349Z,14.20
2018-07-26T09:29:56.144Z,13.26
2018-07-26T09:32:30.688Z,14.89
2018-07-26T09:35:10.120Z,14.51
2018-07-26T09:37:45.204Z,14.75
2018-07-26T09:40:19.720Z,14.93
2018-07-26T09:48:52.770Z,13.11
2018-07-26T09:51:27.643Z,12.94
2018-07-26T09:54:08.129Z,13.53
2018-07-26T09:56:50.863Z,13.64
2018-07-26T09:59:25.447Z,13.15
2018-07-26T10:02:18.427Z,13.86
2018-07-26T10:04:53.019Z,13.04
2018-07-26T10:07:28.842Z,13.43
2018-07-26T10:10:07.033Z,13.69
2018-07-26T10:12:43.351Z,12.32
2018-07-26T10:15:18.497Z,14.16
2018-07-26T10:17:58.681Z,12.66
2018-07-26T10:20:36.444Z,14.32
2018-07-26T10:23:22.900Z,13.44
2018-07-26T10:25:57.548Z,13.00
2018-07-26T10:28:32.024Z,12.92
2018-07-26T10:31:07.496Z,13.68
2018-07-26T10:33:50.952Z,15.25
2018-07-26T10:36:31.489Z,14.18
2018-07-26T10:39:08.147Z,12.21
2018-07-26T10:41:42.480Z,13.86
2018-07-26T10:44:16.980Z,12.87
2018-07-26T10:46:51.596Z,13.27
2018-07-26T10:49:26.111Z,11.74
2018-07-26T10:52:00.882Z,12.87
2018-07-26T10:54:35.379Z,13.75
2018-07-26T10:57:09.914Z,13.67
2018-07-26T10:59:44.432Z,16.36
2018-07-26T11:02:20.869Z,15.63
2018-07-26T11:05:09.515Z,15.69
2018-07-26T11:07:44.501Z,16.53
2018-07-26T11:10:19.072Z,13.44
2018-07-26T11:12:54.287Z,16.06
2018-07-26T11:15:31.981Z,19.05
2018-07-26T11:18:06.725Z,17.84
2018-07-26T11:20:45.876Z,15.29
2018-07-26T11:23:20.633Z,15.27
2018-07-26T11:25:55.073Z,14.59
2018-07-26T11:28:29.592Z,16.72
2018-07-26T11:31:17.831Z,16.98
2018-07-26T11:33:52.312Z,16.93
2018-07-26T11:36:26.663Z,17.24
2018-07-26T11:39:00.933Z,16.59
2018-07-26T11:41:35.342Z,18.14
2018-07-26T11:44:09.807Z,18.32
2018-07-26T11:46:45.157Z,18.91
2018-07-26T11:49:19.695Z,20.04
2018-07-26T11:51:54.135Z,21.81
2018-07-26T11:54:28.443Z,23.47
2018-07-26T11:57:02.838Z,23.62
2018-07-26T11:59:37.207Z,24.04
2018-07-26T12:02:13.479Z,25.71
2018-07-26T12:04:52.188Z,24.77
2018-07-26T12:07:26.662Z,26.54
2018-07-26T12:10:01.067Z,25.69
2018-07-26T12:12:35.412Z,24.42
2018-07-26T12:15:10.135Z,24.25
2018-07-26T12:17:44.642Z,23.54
2018-07-26T12:20:18.959Z,24.62
2018-07-26T12:22:53.369Z,24.97
2018-07-26T12:25:27.623Z,24.48
2018-07-26T12:28:02.072Z,23.48
2018-07-26T12:30:38.376Z,23.20
2018-07-26T12:33:12.976Z,22.60
2018-07-26T12:36:05.953Z,24.06
2018-07-26T12:38:40.301Z,24.55
2018-07-26T12:41:20.333Z,23.92
2018-07-26T12:44:18.899Z,24.25
2018-07-26T12:46:53.249Z,22.47
2018-07-26T12:49:27.802Z,23.96
2018-07-26T12:52:02.098Z,24.88
2018-07-26T12:54:38.236Z,24.07
2018-07-26T12:57:13.224Z,23.79
2018-07-26T12:59:47.956Z,24.55
2018-07-26T13:02:22.509Z,24.15
2018-07-26T13:04:57.337Z,24.64
2018-07-26T13:07:31.600Z,24.12
2018-07-26T13:10:06.175Z,24.20
2018-07-26T13:12:40.518Z,23.48
2018-07-26T13:15:14.940Z,22.94
2018-07-26T13:17:49.259Z,24.90
2018-07-26T13:20:23.503Z,24.23
2018-07-26T13:22:57.763Z,23.16
2018-07-26T13:25:32.176Z,23.07
2018-07-26T13:28:06.597Z,24.06
2018-07-26T13:30:40.865Z,23.88
2018-07-26T13:33:15.404Z,23.88
2018-07-26T13:35:50.051Z,25.73
2018-07-26T13:38:24.275Z,24.37
2018-07-26T13:41:09.208Z,22.93
2018-07-26T13:43:49.928Z,23.21
2018-07-26T13:46:24.377Z,23.38
2018-07-26T13:52:04.751Z,23.41
2018-07-26T13:54:44.340Z,24.05
2018-07-26T13:57:21.067Z,22.90
2018-07-26T13:59:55.494Z,23.00
2018-07-26T14:02:29.835Z,23.85
2018-07-26T14:05:04.469Z,23.08
2018-07-26T14:07:38.812Z,22.50
2018-07-26T14:10:13.248Z,23.43
2018-07-26T14:12:47.471Z,22.88
2018-07-26T14:15:21.944Z,22.61
2018-07-26T14:17:56.279Z,24.09
2018-07-26T14:20:30.712Z,24.65
2018-07-26T14:23:05.045Z,23.83
2018-07-26T14:25:39.504Z,22.70
2018-07-26T14:28:13.776Z,22.41
2018-07-26T14:30:48.472Z,21.86
2018-07-26T14:33:22.844Z,20.08
2018-07-26T14:35:57.376Z,19.96
2018-07-26T14:38:31.758Z,17.85
2018-07-26T14:41:06.183Z,19.76
2018-07-26T14:43:40.737Z,20.58
2018-07-26T14:46:15.038Z,22.44
2018-07-26T14:48:49.371Z,21.21
2018-07-26T14:51:23.804Z,25.51
2018-07-26T14:53:58.291Z,30.47
2018-07-26T14:56:32.621Z,24.54
2018-07-26T14:59:06.983Z,26.43
2018-07-26T15:01:41.407Z,24.12
2018-07-26T15:04:15.814Z,28.85
2018-07-26T15:06:50.191Z,26.46
2018-07-26T15:09:24.599Z,28.48
2018-07-26T15:11:59.103Z,24.15
2018-07-26T15:14:33.596Z,23.32
2018-07-26T15:17:08.051Z,23.05
2018-07-26T15:19:42.473Z,23.29
2018-07-26T15:22:16.695Z,23.63
2018-07-26T15:24:51.142Z,23.94
2018-07-26T15:27:25.502Z,24.30
2018-07-26T15:29:59.943Z,27.74
2018-07-26T15:32:34.334Z,26.09
2018-07-26T15:35:08.786Z,24.64
2018-07-26T15:37:43.240Z,26.62
2018-07-26T15:40:17.987Z,30.00
2018-07-26T15:42:52.468Z,25.95
2018-07-26T15:45:26.891Z,26.05
2018-07-26T15:48:01.316Z,25.89
2018-07-26T15:50:36.187Z,26.79
2018-07-26T15:53:10.591Z,32.03
2018-07-26T15:55:44.924Z,29.06
2018-07-26T15:58:19.311Z,28.49
2018-07-26T16:00:53.597Z,30.18
2018-07-26T16:03:28.241Z,31.05
2018-07-26T16:06:02.599Z,29.22
2018-07-26T16:08:36.933Z,30.36
2018-07-26T16:11:11.455Z,30.76
2018-07-26T16:13:49.407Z,27.55
2018-07-26T16:16:23.848Z,26.16
2018-07-26T16:19:04.004Z,26.04
2018-07-26T16:21:38.711Z,27.08
2018-07-26T16:24:13.020Z,26.17
2018-07-26T16:26:47.407Z,25.54
2018-07-26T16:29:21.863Z,26.16
2018-07-26T16:31:56.313Z,24.30
2018-07-26T16:34:30.692Z,25.35
2018-07-26T16:37:05.100Z,24.40
2018-07-26T16:39:39.743Z,25.06
2018-07-26T16:42:14.134Z,23.64
2018-07-26T16:44:48.520Z,24.51
2018-07-26T16:47:22.945Z,23.11
2018-07-26T16:49:57.582Z,26.52
2018-07-26T16:52:31.971Z,26.92
2018-07-26T16:55:06.622Z,23.55
2018-07-26T16:57:41.177Z,23.17
2018-07-26T17:00:15.545Z,25.80
2018-07-26T17:02:49.996Z,23.93
2018-07-26T17:05:24.368Z,24.02
2018-07-26T17:07:58.779Z,25.63
2018-07-26T17:10:36.915Z,25.44
2018-07-26T17:13:11.069Z,25.16
2018-07-26T17:15:47.393Z,25.69
2018-07-26T17:18:21.678Z,26.80
2018-07-26T17:20:57.170Z,24.58
2018-07-26T17:26:30.976Z,24.90
2018-07-26T17:29:05.454Z,24.60
2018-07-26T17:31:39.755Z,25.99
2018-07-26T17:34:14.215Z,26.13
2018-07-26T17:37:00.696Z,26.82
2018-07-26T17:39:38.569Z,27.32
2018-07-26T17:42:31.784Z,27.37
2018-07-26T17:45:08.199Z,27.31
2018-07-26T17:47:42.475Z,27.73
2018-07-26T17:50:16.963Z,26.92
2018-07-26T17:52:51.252Z,25.83
2018-07-26T17:55:25.555Z,27.03
2018-07-26T17:57:59.992Z,27.66
2018-07-26T18:00:34.507Z,27.10
2018-07-26T18:03:08.947Z,28.80
2018-07-26T18:05:43.203Z,25.89
2018-07-26T18:08:17.859Z,25.09
2018-07-26T18:10:52.540Z,27.08
2018-07-26T18:13:26.873Z,25.41
2018-07-26T18:16:01.335Z,26.74
2018-07-26T18:18:35.692Z,29.33
2018-07-26T18:21:10.011Z,27.59
2018-07-26T18:23:44.408Z,28.03
2018-07-26T18:26:18.825Z,27.81
2018-07-26T18:28:53.456Z,26.16
2018-07-26T18:31:27.952Z,28.97
2018-07-26T18:34:02.317Z,27.99
2018-07-26T18:36:36.736Z,31.77
2018-07-26T18:39:12.807Z,30.28
2018-07-26T18:41:47.276Z,29.10
2018-07-26T18:44:21.668Z,28.85
2018-07-26T18:46:56.040Z,29.04
2018-07-26T18:49:30.579Z,28.21
2018-07-26T18:52:05.083Z,28.72
2018-07-26T18:54:39.480Z,29.90
2018-07-26T18:57:13.943Z,29.83
2018-07-26T18:59:48.398Z,30.93
2018-07-26T19:02:22.696Z,31.48
2018-07-26T19:04:57.037Z,30.07
2018-07-26T19:07:31.416Z,31.16
2018-07-26T19:10:07.504Z,34.23
2018-07-26T19:12:42.007Z,34.27
2018-07-26T19:15:16.435Z,32.98
2018-07-26T19:17:50.688Z,33.42
2018-07-26T19:20:24.996Z,33.89
2018-07-26T19:22:59.279Z,33.56
2018-07-26T19:25:33.552Z,34.89
2018-07-26T19:28:07.944Z,34.97
2018-07-26T19:30:42.508Z,35.67
2018-07-26T19:33:16.824Z,37.07
2018-07-26T19:35:51.111Z,38.45
2018-07-26T19:38:25.826Z,36.71
2018-07-26T19:41:00.208Z,36.61
2018-07-26T19:43:34.627Z,35.26
2018-07-26T19:46:09.096Z,35.53
2018-07-26T19:48:43.488Z,36.13
2018-07-26T19:51:17.780Z,35.77
2018-07-26T19:53:52.273Z,37.75
2018-07-26T19:56:26.524Z,35.58
2018-07-26T19:59:00.963Z,34.93
2018-07-26T20:01:35.307Z,32.88
2018-07-26T20:04:09.787Z,34.18
2018-07-26T20:06:44.227Z,33.48
2018-07-26T20:09:18.611Z,33.93
2018-07-26T20:11:53.063Z,34.56
2018-07-26T20:14:27.355Z,36.42
2018-07-26T20:17:01.852Z,35.08
2018-07-26T20:19:36.172Z,35.03
2018-07-26T20:22:10.645Z,36.92
2018-07-26T20:24:45.065Z,35.49
2018-07-26T20:27:19.615Z,35.54
2018-07-26T20:29:54.083Z,36.15
2018-07-26T20:32:28.676Z,37.29
2018-07-26T20:35:02.960Z,36.13
2018-07-26T20:37:37.340Z,36.60
2018-07-26T20:40:12.154Z,37.70
2018-07-26T20:42:46.704Z,37.59
2018-07-26T20:45:20.902Z,37.55
2018-07-26T20:47:55.675Z,37.19
2018-07-26T20:50:29.955Z,39.38
2018-07-26T20:53:04.248Z,38.71
2018-07-26T20:55:38.648Z,38.35
2018-07-26T20:58:13.083Z,39.05
2018-07-26T21:00:47.576Z,38.21
2018-07-26T21:03:21.988Z,38.31
2018-07-26T21:05:56.435Z,38.53
2018-07-26T21:08:31.015Z,38.20
2018-07-26T21:11:05.712Z,37.98
2018-07-26T21:13:40.237Z,37.84
2018-07-26T21:16:14.615Z,38.86
2018-07-26T21:18:49.090Z,39.38
2018-07-26T21:21:23.524Z,39.87
2018-07-26T21:23:57.895Z,39.01
2018-07-26T21:26:32.250Z,38.97
2018-07-26T21:29:06.459Z,39.00
2018-07-26T21:31:40.866Z,42.00
2018-07-26T21:34:15.267Z,39.43
2018-07-26T21:36:49.659Z,39.30
2018-07-26T21:39:24.056Z,40.06
2018-07-26T21:41:58.313Z,39.52
2018-07-26T21:44:32.707Z,40.31
2018-07-26T21:47:06.943Z,40.88
2018-07-26T21:49:41.388Z,40.11
2018-07-26T21:52:15.704Z,39.26
2018-07-26T21:54:50.004Z,38.91
2018-07-26T21:57:24.403Z,39.58
2018-07-26T21:59:58.848Z,38.90
2018-07-26T22:02:33.361Z,39.42
2018-07-26T22:05:07.820Z,38.83
2018-07-26T22:07:42.383Z,38.44
2018-07-26T22:10:16.775Z,38.38
2018-07-26T22:12:51.056Z,38.49
2018-07-26T22:15:25.488Z,39.08
2018-07-26T22:17:59.779Z,38.65
2018-07-26T22:20:34.238Z,38.02
2018-07-26T22:23:08.666Z,39.26
2018-07-26T22:25:47.620Z,39.42
2018-07-26T22:28:21.895Z,38.69
2018-07-26T22:30:56.199Z,38.23
2018-07-26T22:33:37.135Z,38.35
2018-07-26T22:36:11.408Z,38.60
2018-07-26T22:38:45.804Z,39.28
2018-07-26T22:41:20.222Z,38.72
2018-07-26T22:43:54.639Z,38.35
2018-07-26T22:46:28.978Z,39.29
2018-07-26T22:49:03.640Z,38.85
2018-07-26T22:51:37.943Z,38.82
2018-07-26T22:54:12.268Z,38.81
2018-07-26T22:56:46.539Z,38.70
2018-07-26T22:59:20.971Z,39.74
2018-07-26T23:01:55.368Z,39.02
2018-07-26T23:04:29.639Z,38.22
2018-07-26T23:07:04.273Z,38.41
2018-07-26T23:09:38.555Z,37.85
2018-07-26T23:12:12.962Z,38.78
2018-07-26T23:14:47.341Z,38.39
2018-07-26T23:17:21.883Z,38.59
2018-07-26T23:19:56.200Z,39.39
2018-07-26T23:22:30.484Z,39.87
2018-07-26T23:25:05.675Z,38.54
2018-07-26T23:27:40.779Z,38.69
2018-07-26T23:30:15.047Z,38.44
2018-07-26T23:32:49.412Z,40.25
2018-07-26T23:35:23.815Z,38.87
2018-07-26T23:37:58.257Z,37.90
2018-07-26T23:40:32.687Z,37.71
2018-07-26T23:43:07.284Z,37.55
2018-07-26T23:45:41.620Z,36.97
2018-07-26T23:48:16.563Z,36.41
2018-07-26T23:50:50.950Z,35.72
2018-07-26T23:53:25.340Z,36.27
2018-07-26T23:56:12.296Z,35.77
2018-07-26T23:58:46.688Z,36.37
